sensor_id;sensor_type;location;lat;lon;timestamp;P1;durP1;ratioP1;P2;durP2;ratioP2
26540;SDS011;14206;50.202;10.948;2023-11-22T00:01:56;5.95;;;4.20;;
26540;SDS011;14206;50.202;10.948;2023-11-22T00:04:23;5.28;;;4.30;;
26540;SDS011;14206;50.202;10.948;2023-11-22T00:06:49;7.10;;;4.85;;
26540;SDS011;14206;50.202;10.948;2023-11-22T00:09:16;6.68;;;4.85;;
26540;SDS011;14206;50.202;10.948;2023-11-22T00:11:48;6.60;;;5.35;;
26540;SDS011;14206;50.202;10.948;2023-11-22T00:14:16;6.85;;;4.95;;
26540;SDS011;14206;50.202;10.948;2023-11-22T00:16:43;7.40;;;5.07;;
26540;SDS011;14206;50.202;10.948;2023-11-22T00:19:09;7.55;;;5.45;;
26540;SDS011;14206;50.202;10.948;2023-11-22T00:21:36;6.50;;;5.20;;
26540;SDS011;14206;50.202;10.948;2023-11-22T00:24:03;6.47;;;5.15;;
26540;SDS011;14206;50.202;10.948;2023-11-22T00:26:31;7.07;;;5.18;;
26540;SDS011;14206;50.202;10.948;2023-11-22T00:28:58;6.90;;;5.25;;
26540;SDS011;14206;50.202;10.948;2023-11-22T00:31:26;7.57;;;5.20;;
26540;SDS011;14206;50.202;10.948;2023-11-22T00:33:53;6.07;;;4.40;;
26540;SDS011;14206;50.202;10.948;2023-11-22T00:36:22;6.57;;;4.90;;
26540;SDS011;14206;50.202;10.948;2023-11-22T00:38:48;6.15;;;4.45;;
26540;SDS011;14206;50.202;10.948;2023-11-22T00:41:15;6.05;;;4.57;;
26540;SDS011;14206;50.202;10.948;2023-11-22T00:43:42;6.90;;;4.93;;
26540;SDS011;14206;50.202;10.948;2023-11-22T00:46:09;6.55;;;4.15;;
26540;SDS011;14206;50.202;10.948;2023-11-22T00:48:36;6.40;;;4.15;;
26540;SDS011;14206;50.202;10.948;2023-11-22T00:51:04;5.53;;;4.10;;
26540;SDS011;14206;50.202;10.948;2023-11-22T00:53:35;4.95;;;3.95;;
26540;SDS011;14206;50.202;10.948;2023-11-22T00:56:05;5.95;;;4.15;;
26540;SDS011;14206;50.202;10.948;2023-11-22T00:58:33;3.70;;;3.10;;
26540;SDS011;14206;50.202;10.948;2023-11-22T01:01:00;4.28;;;3.30;;
26540;SDS011;14206;50.202;10.948;2023-11-22T01:03:27;4.95;;;3.63;;
26540;SDS011;14206;50.202;10.948;2023-11-22T01:05:54;4.20;;;3.42;;
26540;SDS011;14206;50.202;10.948;2023-11-22T01:08:21;4.45;;;3.55;;
26540;SDS011;14206;50.202;10.948;2023-11-22T01:10:48;4.18;;;3.33;;
26540;SDS011;14206;50.202;10.948;2023-11-22T01:13:15;5.80;;;3.83;;
26540;SDS011;14206;50.202;10.948;2023-11-22T01:15:42;4.82;;;3.47;;
26540;SDS011;14206;50.202;10.948;2023-11-22T01:18:10;4.35;;;3.40;;
26540;SDS011;14206;50.202;10.948;2023-11-22T01:20:37;4.72;;;3.53;;
26540;SDS011;14206;50.202;10.948;2023-11-22T01:23:04;4.85;;;3.60;;
26540;SDS011;14206;50.202;10.948;2023-11-22T01:25:32;4.95;;;3.72;;
26540;SDS011;14206;50.202;10.948;2023-11-22T01:27:59;4.78;;;3.58;;
26540;SDS011;14206;50.202;10.948;2023-11-22T01:30:27;5.65;;;4.18;;
26540;SDS011;14206;50.202;10.948;2023-11-22T01:32:55;5.97;;;4.15;;
26540;SDS011;14206;50.202;10.948;2023-11-22T01:35:22;5.20;;;3.97;;
26540;SDS011;14206;50.202;10.948;2023-11-22T01:37:49;4.78;;;3.83;;
26540;SDS011;14206;50.202;10.948;2023-11-22T01:40:16;5.78;;;4.03;;
26540;SDS011;14206;50.202;10.948;2023-11-22T01:42:46;8.43;;;4.03;;
26540;SDS011;14206;50.202;10.948;2023-11-22T01:45:13;5.72;;;3.80;;
26540;SDS011;14206;50.202;10.948;2023-11-22T01:47:41;5.68;;;4.15;;
26540;SDS011;14206;50.202;10.948;2023-11-22T01:50:08;5.40;;;4.10;;
26540;SDS011;14206;50.202;10.948;2023-11-22T01:52:36;5.15;;;3.88;;
26540;SDS011;14206;50.202;10.948;2023-11-22T01:55:03;5.20;;;4.00;;
26540;SDS011;14206;50.202;10.948;2023-11-22T01:57:32;5.22;;;3.78;;
26540;SDS011;14206;50.202;10.948;2023-11-22T02:00:02;5.10;;;4.07;;
26540;SDS011;14206;50.202;10.948;2023-11-22T02:02:38;5.53;;;4.55;;
26540;SDS011;14206;50.202;10.948;2023-11-22T02:05:05;5.72;;;4.38;;
26540;SDS011;14206;50.202;10.948;2023-11-22T02:07:32;7.15;;;4.28;;
26540;SDS011;14206;50.202;10.948;2023-11-22T02:09:59;5.93;;;4.28;;
26540;SDS011;14206;50.202;10.948;2023-11-22T02:12:26;5.88;;;4.47;;
26540;SDS011;14206;50.202;10.948;2023-11-22T02:14:53;5.10;;;4.05;;
26540;SDS011;14206;50.202;10.948;2023-11-22T02:17:20;4.70;;;3.78;;
26540;SDS011;14206;50.202;10.948;2023-11-22T02:19:48;5.82;;;4.32;;
26540;SDS011;14206;50.202;10.948;2023-11-22T02:22:15;5.30;;;4.10;;
26540;SDS011;14206;50.202;10.948;2023-11-22T02:24:44;6.72;;;4.97;;
26540;SDS011;14206;50.202;10.948;2023-11-22T02:27:11;5.40;;;4.05;;
26540;SDS011;14206;50.202;10.948;2023-11-22T02:29:38;7.40;;;5.13;;
26540;SDS011;14206;50.202;10.948;2023-11-22T02:32:06;7.35;;;4.95;;
26540;SDS011;14206;50.202;10.948;2023-11-22T02:34:34;7.78;;;4.88;;
26540;SDS011;14206;50.202;10.948;2023-11-22T02:37:05;5.90;;;4.57;;
26540;SDS011;14206;50.202;10.948;2023-11-22T02:40:16;5.32;;;4.22;;
26540;SDS011;14206;50.202;10.948;2023-11-22T02:42:30;5.72;;;3.83;;
26540;SDS011;14206;50.202;10.948;2023-11-22T02:44:57;4.80;;;3.70;;
26540;SDS011;14206;50.202;10.948;2023-11-22T02:47:24;6.03;;;4.38;;
26540;SDS011;14206;50.202;10.948;2023-11-22T02:49:52;5.53;;;4.13;;
26540;SDS011;14206;50.202;10.948;2023-11-22T02:52:21;6.13;;;4.43;;
26540;SDS011;14206;50.202;10.948;2023-11-22T02:54:50;4.97;;;3.97;;
26540;SDS011;14206;50.202;10.948;2023-11-22T02:57:17;5.15;;;4.15;;
26540;SDS011;14206;50.202;10.948;2023-11-22T02:59:44;4.57;;;3.72;;
26540;SDS011;14206;50.202;10.948;2023-11-22T03:02:18;5.55;;;4.45;;
26540;SDS011;14206;50.202;10.948;2023-11-22T03:04:45;5.95;;;4.22;;
26540;SDS011;14206;50.202;10.948;2023-11-22T03:07:12;7.63;;;4.75;;
26540;SDS011;14206;50.202;10.948;2023-11-22T03:09:39;6.47;;;5.03;;
26540;SDS011;14206;50.202;10.948;2023-11-22T03:12:07;7.18;;;5.47;;
26540;SDS011;14206;50.202;10.948;2023-11-22T03:14:35;7.30;;;5.20;;
26540;SDS011;14206;50.202;10.948;2023-11-22T03:17:03;6.82;;;5.10;;
26540;SDS011;14206;50.202;10.948;2023-11-22T03:19:29;6.78;;;5.03;;
26540;SDS011;14206;50.202;10.948;2023-11-22T03:21:56;7.93;;;5.15;;
26540;SDS011;14206;50.202;10.948;2023-11-22T03:24:23;8.07;;;5.25;;
26540;SDS011;14206;50.202;10.948;2023-11-22T03:26:50;6.28;;;4.90;;
26540;SDS011;14206;50.202;10.948;2023-11-22T03:29:18;7.75;;;5.38;;
26540;SDS011;14206;50.202;10.948;2023-11-22T03:31:45;8.57;;;5.97;;
26540;SDS011;14206;50.202;10.948;2023-11-22T03:34:13;7.38;;;5.70;;
26540;SDS011;14206;50.202;10.948;2023-11-22T03:36:41;7.35;;;5.57;;
26540;SDS011;14206;50.202;10.948;2023-11-22T03:39:08;7.15;;;5.13;;
26540;SDS011;14206;50.202;10.948;2023-11-22T03:41:36;9.18;;;5.97;;
26540;SDS011;14206;50.202;10.948;2023-11-22T03:44:04;8.95;;;5.82;;
26540;SDS011;14206;50.202;10.948;2023-11-22T03:46:35;8.40;;;6.03;;
26540;SDS011;14206;50.202;10.948;2023-11-22T03:49:03;8.95;;;5.95;;
26540;SDS011;14206;50.202;10.948;2023-11-22T03:51:30;9.65;;;5.90;;
26540;SDS011;14206;50.202;10.948;2023-11-22T03:53:57;7.32;;;5.28;;
26540;SDS011;14206;50.202;10.948;2023-11-22T03:56:24;8.07;;;5.45;;
26540;SDS011;14206;50.202;10.948;2023-11-22T03:58:52;7.97;;;5.82;;
26540;SDS011;14206;50.202;10.948;2023-11-22T04:01:19;8.82;;;6.07;;
26540;SDS011;14206;50.202;10.948;2023-11-22T04:03:47;9.38;;;6.20;;
26540;SDS011;14206;50.202;10.948;2023-11-22T04:06:15;9.20;;;6.30;;
26540;SDS011;14206;50.202;10.948;2023-11-22T04:08:43;8.85;;;6.05;;
26540;SDS011;14206;50.202;10.948;2023-11-22T04:11:30;11.70;;;7.00;;
26540;SDS011;14206;50.202;10.948;2023-11-22T04:13:57;12.98;;;6.88;;
26540;SDS011;14206;50.202;10.948;2023-11-22T04:16:24;9.13;;;6.30;;
26540;SDS011;14206;50.202;10.948;2023-11-22T04:18:52;10.18;;;6.30;;
26540;SDS011;14206;50.202;10.948;2023-11-22T04:21:19;9.43;;;6.32;;
26540;SDS011;14206;50.202;10.948;2023-11-22T04:23:46;10.18;;;6.82;;
26540;SDS011;14206;50.202;10.948;2023-11-22T04:26:14;11.38;;;6.60;;
26540;SDS011;14206;50.202;10.948;2023-11-22T04:28:42;9.77;;;6.60;;
26540;SDS011;14206;50.202;10.948;2023-11-22T04:31:09;9.25;;;6.18;;
26540;SDS011;14206;50.202;10.948;2023-11-22T04:33:36;10.23;;;6.95;;
26540;SDS011;14206;50.202;10.948;2023-11-22T04:36:04;10.80;;;6.18;;
26540;SDS011;14206;50.202;10.948;2023-11-22T04:38:31;9.10;;;6.50;;
26540;SDS011;14206;50.202;10.948;2023-11-22T04:41:00;12.73;;;8.13;;
26540;SDS011;14206;50.202;10.948;2023-11-22T04:43:27;9.85;;;6.93;;
26540;SDS011;14206;50.202;10.948;2023-11-22T04:45:57;10.77;;;6.97;;
26540;SDS011;14206;50.202;10.948;2023-11-22T04:48:25;9.10;;;6.38;;
26540;SDS011;14206;50.202;10.948;2023-11-22T04:50:52;10.68;;;6.75;;
26540;SDS011;14206;50.202;10.948;2023-11-22T04:53:19;9.40;;;6.45;;
26540;SDS011;14206;50.202;10.948;2023-11-22T04:55:46;10.07;;;6.90;;
26540;SDS011;14206;50.202;10.948;2023-11-22T04:58:12;11.95;;;7.60;;
26540;SDS011;14206;50.202;10.948;2023-11-22T05:00:39;10.88;;;7.50;;
26540;SDS011;14206;50.202;10.948;2023-11-22T05:03:06;10.70;;;7.47;;
26540;SDS011;14206;50.202;10.948;2023-11-22T05:05:34;14.80;;;7.97;;
26540;SDS011;14206;50.202;10.948;2023-11-22T05:08:01;13.50;;;8.98;;
26540;SDS011;14206;50.202;10.948;2023-11-22T05:10:29;12.25;;;8.75;;
26540;SDS011;14206;50.202;10.948;2023-11-22T05:12:55;14.38;;;10.13;;
26540;SDS011;14206;50.202;10.948;2023-11-22T05:15:28;15.27;;;9.43;;
26540;SDS011;14206;50.202;10.948;2023-11-22T05:17:55;13.93;;;9.40;;
26540;SDS011;14206;50.202;10.948;2023-11-22T05:20:22;13.75;;;9.90;;
26540;SDS011;14206;50.202;10.948;2023-11-22T05:22:49;14.18;;;8.88;;
26540;SDS011;14206;50.202;10.948;2023-11-22T05:25:16;14.35;;;9.05;;
26540;SDS011;14206;50.202;10.948;2023-11-22T05:27:43;12.13;;;8.05;;
26540;SDS011;14206;50.202;10.948;2023-11-22T05:30:10;13.75;;;8.60;;
26540;SDS011;14206;50.202;10.948;2023-11-22T05:32:37;14.73;;;8.05;;
26540;SDS011;14206;50.202;10.948;2023-11-22T05:35:04;13.40;;;8.55;;
26540;SDS011;14206;50.202;10.948;2023-11-22T05:37:36;13.68;;;9.10;;
26540;SDS011;14206;50.202;10.948;2023-11-22T05:40:04;12.05;;;8.48;;
26540;SDS011;14206;50.202;10.948;2023-11-22T05:42:31;12.55;;;8.45;;
26540;SDS011;14206;50.202;10.948;2023-11-22T05:44:58;11.60;;;7.78;;
26540;SDS011;14206;50.202;10.948;2023-11-22T05:47:25;12.68;;;8.38;;
26540;SDS011;14206;50.202;10.948;2023-11-22T05:49:52;14.27;;;8.48;;
26540;SDS011;14206;50.202;10.948;2023-11-22T05:52:19;12.70;;;8.60;;
26540;SDS011;14206;50.202;10.948;2023-11-22T05:54:47;11.88;;;7.90;;
26540;SDS011;14206;50.202;10.948;2023-11-22T05:57:14;13.52;;;9.20;;
26540;SDS011;14206;50.202;10.948;2023-11-22T05:59:41;11.93;;;8.07;;
26540;SDS011;14206;50.202;10.948;2023-11-22T06:02:08;13.60;;;9.02;;
26540;SDS011;14206;50.202;10.948;2023-11-22T06:04:35;12.18;;;8.02;;
26540;SDS011;14206;50.202;10.948;2023-11-22T06:07:04;11.48;;;8.00;;
26540;SDS011;14206;50.202;10.948;2023-11-22T06:09:31;13.05;;;7.60;;
26540;SDS011;14206;50.202;10.948;2023-11-22T06:11:58;12.57;;;7.70;;
26540;SDS011;14206;50.202;10.948;2023-11-22T06:14:25;10.90;;;7.78;;
26540;SDS011;14206;50.202;10.948;2023-11-22T06:16:52;12.55;;;7.90;;
26540;SDS011;14206;50.202;10.948;2023-11-22T06:19:19;13.73;;;8.25;;
26540;SDS011;14206;50.202;10.948;2023-11-22T06:21:46;10.82;;;7.65;;
26540;SDS011;14206;50.202;10.948;2023-11-22T06:24:13;10.63;;;6.82;;
26540;SDS011;14206;50.202;10.948;2023-11-22T06:26:43;10.63;;;7.28;;
26540;SDS011;14206;50.202;10.948;2023-11-22T06:29:12;10.05;;;6.82;;
26540;SDS011;14206;50.202;10.948;2023-11-22T06:31:41;10.18;;;6.50;;
26540;SDS011;14206;50.202;10.948;2023-11-22T06:34:08;8.30;;;5.65;;
26540;SDS011;14206;50.202;10.948;2023-11-22T06:36:37;8.48;;;5.95;;
26540;SDS011;14206;50.202;10.948;2023-11-22T06:39:04;14.23;;;8.13;;
26540;SDS011;14206;50.202;10.948;2023-11-22T06:41:32;11.23;;;6.70;;
26540;SDS011;14206;50.202;10.948;2023-11-22T06:43:59;9.23;;;6.57;;
26540;SDS011;14206;50.202;10.948;2023-11-22T06:46:26;8.48;;;5.97;;
26540;SDS011;14206;50.202;10.948;2023-11-22T06:48:52;8.15;;;5.78;;
26540;SDS011;14206;50.202;10.948;2023-11-22T06:51:20;8.40;;;5.93;;
26540;SDS011;14206;50.202;10.948;2023-11-22T06:53:47;8.25;;;6.07;;
26540;SDS011;14206;50.202;10.948;2023-11-22T06:56:14;9.02;;;6.03;;
26540;SDS011;14206;50.202;10.948;2023-11-22T06:58:41;10.38;;;6.07;;
26540;SDS011;14206;50.202;10.948;2023-11-22T07:01:08;11.30;;;6.60;;
26540;SDS011;14206;50.202;10.948;2023-11-22T07:03:37;9.55;;;6.85;;
26540;SDS011;14206;50.202;10.948;2023-11-22T07:06:04;10.40;;;6.18;;
26540;SDS011;14206;50.202;10.948;2023-11-22T07:08:31;8.30;;;5.80;;
26540;SDS011;14206;50.202;10.948;2023-11-22T07:10:58;9.38;;;6.38;;
26540;SDS011;14206;50.202;10.948;2023-11-22T07:13:25;9.55;;;6.63;;
26540;SDS011;14206;50.202;10.948;2023-11-22T07:15:53;10.15;;;6.82;;
26540;SDS011;14206;50.202;10.948;2023-11-22T07:18:20;10.90;;;6.63;;
26540;SDS011;14206;50.202;10.948;2023-11-22T07:20:50;9.90;;;7.22;;
26540;SDS011;14206;50.202;10.948;2023-11-22T07:23:19;9.75;;;6.47;;
26540;SDS011;14206;50.202;10.948;2023-11-22T07:25:49;8.88;;;6.43;;
26540;SDS011;14206;50.202;10.948;2023-11-22T07:28:15;9.32;;;6.18;;
26540;SDS011;14206;50.202;10.948;2023-11-22T07:30:42;8.73;;;6.22;;
26540;SDS011;14206;50.202;10.948;2023-11-22T07:33:09;9.05;;;6.03;;
26540;SDS011;14206;50.202;10.948;2023-11-22T07:35:37;20.58;;;9.02;;
26540;SDS011;14206;50.202;10.948;2023-11-22T07:38:05;30.20;;;13.68;;
26540;SDS011;14206;50.202;10.948;2023-11-22T07:40:34;9.52;;;6.78;;
26540;SDS011;14206;50.202;10.948;2023-11-22T07:43:01;8.95;;;6.03;;
26540;SDS011;14206;50.202;10.948;2023-11-22T07:45:31;8.50;;;6.05;;
26540;SDS011;14206;50.202;10.948;2023-11-22T07:47:58;9.43;;;6.13;;
26540;SDS011;14206;50.202;10.948;2023-11-22T07:50:29;9.23;;;6.80;;
26540;SDS011;14206;50.202;10.948;2023-11-22T07:52:56;7.70;;;5.63;;
26540;SDS011;14206;50.202;10.948;2023-11-22T07:55:23;8.43;;;5.60;;
26540;SDS011;14206;50.202;10.948;2023-11-22T07:57:50;9.32;;;5.88;;
26540;SDS011;14206;50.202;10.948;2023-11-22T08:00:17;6.93;;;5.38;;
26540;SDS011;14206;50.202;10.948;2023-11-22T08:02:45;7.28;;;5.53;;
26540;SDS011;14206;50.202;10.948;2023-11-22T08:05:13;9.02;;;5.90;;
26540;SDS011;14206;50.202;10.948;2023-11-22T08:07:42;9.48;;;6.13;;
26540;SDS011;14206;50.202;10.948;2023-11-22T08:10:12;10.27;;;6.75;;
26540;SDS011;14206;50.202;10.948;2023-11-22T08:12:45;9.52;;;6.00;;
26540;SDS011;14206;50.202;10.948;2023-11-22T08:15:13;7.22;;;4.90;;
26540;SDS011;14206;50.202;10.948;2023-11-22T08:17:42;8.02;;;5.32;;
26540;SDS011;14206;50.202;10.948;2023-11-22T08:20:11;5.28;;;4.20;;
26540;SDS011;14206;50.202;10.948;2023-11-22T08:22:41;8.15;;;5.30;;
26540;SDS011;14206;50.202;10.948;2023-11-22T08:25:08;8.40;;;6.10;;
26540;SDS011;14206;50.202;10.948;2023-11-22T08:27:42;8.98;;;5.38;;
26540;SDS011;14206;50.202;10.948;2023-11-22T08:30:09;6.53;;;4.93;;
26540;SDS011;14206;50.202;10.948;2023-11-22T08:32:43;6.82;;;4.82;;
26540;SDS011;14206;50.202;10.948;2023-11-22T08:35:14;7.10;;;5.30;;
26540;SDS011;14206;50.202;10.948;2023-11-22T08:37:42;8.07;;;5.32;;
26540;SDS011;14206;50.202;10.948;2023-11-22T08:40:10;7.25;;;5.65;;
26540;SDS011;14206;50.202;10.948;2023-11-22T08:42:49;9.00;;;5.75;;
26540;SDS011;14206;50.202;10.948;2023-11-22T08:45:16;7.15;;;4.97;;
26540;SDS011;14206;50.202;10.948;2023-11-22T08:47:43;8.23;;;5.40;;
26540;SDS011;14206;50.202;10.948;2023-11-22T08:50:11;6.53;;;4.75;;
26540;SDS011;14206;50.202;10.948;2023-11-22T08:52:39;7.00;;;5.00;;
26540;SDS011;14206;50.202;10.948;2023-11-22T08:55:08;6.60;;;5.00;;
26540;SDS011;14206;50.202;10.948;2023-11-22T08:57:35;7.13;;;5.38;;
26540;SDS011;14206;50.202;10.948;2023-11-22T09:00:07;6.70;;;4.72;;
26540;SDS011;14206;50.202;10.948;2023-11-22T09:02:37;5.95;;;4.35;;
26540;SDS011;14206;50.202;10.948;2023-11-22T09:05:06;5.72;;;4.40;;
26540;SDS011;14206;50.202;10.948;2023-11-22T09:07:39;7.15;;;4.90;;
26540;SDS011;14206;50.202;10.948;2023-11-22T09:10:06;6.68;;;4.65;;
26540;SDS011;14206;50.202;10.948;2023-11-22T09:12:37;5.93;;;4.40;;
26540;SDS011;14206;50.202;10.948;2023-11-22T09:15:08;5.85;;;4.28;;
26540;SDS011;14206;50.202;10.948;2023-11-22T09:17:39;5.68;;;4.40;;
26540;SDS011;14206;50.202;10.948;2023-11-22T09:20:11;5.70;;;4.30;;
26540;SDS011;14206;50.202;10.948;2023-11-22T09:22:46;5.35;;;4.22;;
26540;SDS011;14206;50.202;10.948;2023-11-22T09:27:55;7.07;;;4.38;;
26540;SDS011;14206;50.202;10.948;2023-11-22T09:30:26;5.55;;;3.75;;
26540;SDS011;14206;50.202;10.948;2023-11-22T09:33:13;5.70;;;4.50;;
26540;SDS011;14206;50.202;10.948;2023-11-22T09:35:43;6.75;;;4.38;;
26540;SDS011;14206;50.202;10.948;2023-11-22T09:38:11;6.07;;;4.32;;
26540;SDS011;14206;50.202;10.948;2023-11-22T09:43:10;5.65;;;3.67;;
26540;SDS011;14206;50.202;10.948;2023-11-22T09:45:38;4.30;;;3.50;;
26540;SDS011;14206;50.202;10.948;2023-11-22T09:48:07;4.07;;;3.20;;
26540;SDS011;14206;50.202;10.948;2023-11-22T09:54:00;4.82;;;3.60;;
26540;SDS011;14206;50.202;10.948;2023-11-22T09:56:40;4.95;;;3.97;;
26540;SDS011;14206;50.202;10.948;2023-11-22T09:59:08;5.25;;;4.10;;
26540;SDS011;14206;50.202;10.948;2023-11-22T10:01:40;4.97;;;3.22;;
26540;SDS011;14206;50.202;10.948;2023-11-22T10:04:07;6.28;;;3.88;;
26540;SDS011;14206;50.202;10.948;2023-11-22T10:06:34;4.80;;;3.80;;
26540;SDS011;14206;50.202;10.948;2023-11-22T10:09:02;4.38;;;3.60;;
26540;SDS011;14206;50.202;10.948;2023-11-22T10:11:34;3.75;;;3.10;;
26540;SDS011;14206;50.202;10.948;2023-11-22T10:14:04;4.93;;;3.85;;
26540;SDS011;14206;50.202;10.948;2023-11-22T10:16:31;4.18;;;3.33;;
26540;SDS011;14206;50.202;10.948;2023-11-22T10:18:58;3.95;;;3.35;;
26540;SDS011;14206;50.202;10.948;2023-11-22T10:21:26;5.45;;;4.15;;
26540;SDS011;14206;50.202;10.948;2023-11-22T10:23:57;4.18;;;3.38;;
26540;SDS011;14206;50.202;10.948;2023-11-22T10:26:28;4.05;;;3.65;;
26540;SDS011;14206;50.202;10.948;2023-11-22T10:28:56;4.55;;;3.50;;
26540;SDS011;14206;50.202;10.948;2023-11-22T10:31:24;3.85;;;3.28;;
26540;SDS011;14206;50.202;10.948;2023-11-22T10:33:51;4.07;;;3.63;;
26540;SDS011;14206;50.202;10.948;2023-11-22T10:36:20;5.32;;;4.00;;
26540;SDS011;14206;50.202;10.948;2023-11-22T10:38:49;4.32;;;3.60;;
26540;SDS011;14206;50.202;10.948;2023-11-22T10:41:17;4.63;;;3.30;;
26540;SDS011;14206;50.202;10.948;2023-11-22T10:43:46;4.35;;;3.65;;
26540;SDS011;14206;50.202;10.948;2023-11-22T10:46:13;4.78;;;3.65;;
26540;SDS011;14206;50.202;10.948;2023-11-22T10:48:43;4.15;;;3.53;;
26540;SDS011;14206;50.202;10.948;2023-11-22T10:51:12;3.97;;;3.17;;
26540;SDS011;14206;50.202;10.948;2023-11-22T10:53:50;3.47;;;2.95;;
26540;SDS011;14206;50.202;10.948;2023-11-22T10:56:21;5.43;;;4.10;;
26540;SDS011;14206;50.202;10.948;2023-11-22T10:58:50;4.40;;;3.33;;
26540;SDS011;14206;50.202;10.948;2023-11-22T11:01:25;5.70;;;4.10;;
26540;SDS011;14206;50.202;10.948;2023-11-22T11:06:20;5.75;;;3.88;;
26540;SDS011;14206;50.202;10.948;2023-11-22T11:08:55;7.10;;;3.95;;
26540;SDS011;14206;50.202;10.948;2023-11-22T11:11:25;6.82;;;3.90;;
26540;SDS011;14206;50.202;10.948;2023-11-22T11:13:54;4.53;;;3.90;;
26540;SDS011;14206;50.202;10.948;2023-11-22T11:16:22;5.30;;;3.78;;
26540;SDS011;14206;50.202;10.948;2023-11-22T11:18:50;5.20;;;4.35;;
26540;SDS011;14206;50.202;10.948;2023-11-22T11:21:17;5.50;;;4.20;;
26540;SDS011;14206;50.202;10.948;2023-11-22T11:23:45;4.32;;;3.25;;
26540;SDS011;14206;50.202;10.948;2023-11-22T11:26:16;5.65;;;4.28;;
26540;SDS011;14206;50.202;10.948;2023-11-22T11:28:49;5.80;;;4.38;;
26540;SDS011;14206;50.202;10.948;2023-11-22T11:31:22;5.88;;;4.20;;
26540;SDS011;14206;50.202;10.948;2023-11-22T11:36:26;5.38;;;4.18;;
26540;SDS011;14206;50.202;10.948;2023-11-22T11:38:55;5.57;;;4.13;;
26540;SDS011;14206;50.202;10.948;2023-11-22T11:41:25;5.60;;;4.30;;
26540;SDS011;14206;50.202;10.948;2023-11-22T11:44:09;5.75;;;3.88;;
26540;SDS011;14206;50.202;10.948;2023-11-22T11:46:38;6.53;;;4.70;;
26540;SDS011;14206;50.202;10.948;2023-11-22T11:49:07;5.22;;;3.90;;
26540;SDS011;14206;50.202;10.948;2023-11-22T11:51:35;5.55;;;4.30;;
26540;SDS011;14206;50.202;10.948;2023-11-22T11:54:04;5.82;;;4.20;;
26540;SDS011;14206;50.202;10.948;2023-11-22T11:56:33;6.18;;;4.45;;
26540;SDS011;14206;50.202;10.948;2023-11-22T11:59:00;6.00;;;3.90;;
26540;SDS011;14206;50.202;10.948;2023-11-22T12:01:28;4.57;;;3.78;;
26540;SDS011;14206;50.202;10.948;2023-11-22T12:04:02;5.63;;;4.07;;
26540;SDS011;14206;50.202;10.948;2023-11-22T12:06:30;6.57;;;4.97;;
26540;SDS011;14206;50.202;10.948;2023-11-22T12:09:00;5.55;;;4.47;;
26540;SDS011;14206;50.202;10.948;2023-11-22T12:11:27;6.57;;;4.50;;
26540;SDS011;14206;50.202;10.948;2023-11-22T12:13:56;5.05;;;3.85;;
26540;SDS011;14206;50.202;10.948;2023-11-22T12:16:25;5.30;;;4.15;;
26540;SDS011;14206;50.202;10.948;2023-11-22T12:18:53;4.93;;;3.80;;
26540;SDS011;14206;50.202;10.948;2023-11-22T12:21:21;4.85;;;4.00;;
26540;SDS011;14206;50.202;10.948;2023-11-22T12:23:48;5.03;;;3.58;;
26540;SDS011;14206;50.202;10.948;2023-11-22T12:26:16;5.90;;;3.90;;
26540;SDS011;14206;50.202;10.948;2023-11-22T12:28:47;5.03;;;3.55;;
26540;SDS011;14206;50.202;10.948;2023-11-22T12:31:29;5.55;;;3.40;;
26540;SDS011;14206;50.202;10.948;2023-11-22T12:34:02;4.45;;;3.55;;
26540;SDS011;14206;50.202;10.948;2023-11-22T12:36:30;5.28;;;3.97;;
26540;SDS011;14206;50.202;10.948;2023-11-22T12:38:57;4.47;;;3.40;;
26540;SDS011;14206;50.202;10.948;2023-11-22T12:41:28;4.00;;;3.13;;
26540;SDS011;14206;50.202;10.948;2023-11-22T12:44:04;4.00;;;3.22;;
26540;SDS011;14206;50.202;10.948;2023-11-22T12:46:47;3.75;;;2.95;;
26540;SDS011;14206;50.202;10.948;2023-11-22T12:49:16;5.35;;;3.15;;
26540;SDS011;14206;50.202;10.948;2023-11-22T12:51:46;4.55;;;3.28;;
26540;SDS011;14206;50.202;10.948;2023-11-22T12:54:14;4.45;;;3.25;;
26540;SDS011;14206;50.202;10.948;2023-11-22T12:56:41;4.63;;;3.60;;
26540;SDS011;14206;50.202;10.948;2023-11-22T12:59:08;3.42;;;2.95;;
26540;SDS011;14206;50.202;10.948;2023-11-22T13:01:36;3.78;;;2.85;;
26540;SDS011;14206;50.202;10.948;2023-11-22T13:04:03;4.38;;;3.38;;
26540;SDS011;14206;50.202;10.948;2023-11-22T13:06:32;5.85;;;4.03;;
26540;SDS011;14206;50.202;10.948;2023-11-22T13:08:59;5.60;;;4.00;;
26540;SDS011;14206;50.202;10.948;2023-11-22T13:11:26;5.28;;;3.85;;
26540;SDS011;14206;50.202;10.948;2023-11-22T13:13:53;5.20;;;3.55;;
26540;SDS011;14206;50.202;10.948;2023-11-22T13:16:20;5.13;;;3.45;;
26540;SDS011;14206;50.202;10.948;2023-11-22T13:18:47;4.28;;;3.50;;
26540;SDS011;14206;50.202;10.948;2023-11-22T13:21:15;3.78;;;2.95;;
26540;SDS011;14206;50.202;10.948;2023-11-22T13:23:42;6.43;;;5.05;;
26540;SDS011;14206;50.202;10.948;2023-11-22T13:26:09;5.40;;;4.28;;
26540;SDS011;14206;50.202;10.948;2023-11-22T13:28:39;4.88;;;3.92;;
26540;SDS011;14206;50.202;10.948;2023-11-22T13:31:07;4.30;;;3.50;;
26540;SDS011;14206;50.202;10.948;2023-11-22T13:33:35;4.50;;;3.78;;
26540;SDS011;14206;50.202;10.948;2023-11-22T13:36:04;6.60;;;4.38;;
26540;SDS011;14206;50.202;10.948;2023-11-22T13:38:31;4.47;;;3.92;;
26540;SDS011;14206;50.202;10.948;2023-11-22T13:40:58;3.95;;;3.50;;
26540;SDS011;14206;50.202;10.948;2023-11-22T13:43:25;4.55;;;3.58;;
26540;SDS011;14206;50.202;10.948;2023-11-22T13:45:52;4.40;;;3.67;;
26540;SDS011;14206;50.202;10.948;2023-11-22T13:48:19;6.25;;;4.57;;
26540;SDS011;14206;50.202;10.948;2023-11-22T13:50:49;7.47;;;5.47;;
26540;SDS011;14206;50.202;10.948;2023-11-22T13:53:16;5.53;;;4.15;;
26540;SDS011;14206;50.202;10.948;2023-11-22T13:55:48;4.45;;;3.83;;
26540;SDS011;14206;50.202;10.948;2023-11-22T13:58:17;6.18;;;4.38;;
26540;SDS011;14206;50.202;10.948;2023-11-22T14:00:44;4.88;;;3.50;;
26540;SDS011;14206;50.202;10.948;2023-11-22T14:03:14;4.78;;;3.85;;
26540;SDS011;14206;50.202;10.948;2023-11-22T14:05:41;4.68;;;3.70;;
26540;SDS011;14206;50.202;10.948;2023-11-22T14:08:09;6.20;;;4.72;;
26540;SDS011;14206;50.202;10.948;2023-11-22T14:10:36;5.68;;;4.63;;
26540;SDS011;14206;50.202;10.948;2023-11-22T14:13:03;6.63;;;4.70;;
26540;SDS011;14206;50.202;10.948;2023-11-22T14:15:31;5.28;;;4.22;;
26540;SDS011;14206;50.202;10.948;2023-11-22T14:17:58;5.50;;;3.97;;
26540;SDS011;14206;50.202;10.948;2023-11-22T14:20:26;4.95;;;3.55;;
26540;SDS011;14206;50.202;10.948;2023-11-22T14:22:53;6.10;;;4.43;;
26540;SDS011;14206;50.202;10.948;2023-11-22T14:25:20;5.13;;;3.53;;
26540;SDS011;14206;50.202;10.948;2023-11-22T14:27:47;5.10;;;3.60;;
26540;SDS011;14206;50.202;10.948;2023-11-22T14:30:19;5.25;;;3.97;;
26540;SDS011;14206;50.202;10.948;2023-11-22T14:32:47;5.05;;;4.05;;
26540;SDS011;14206;50.202;10.948;2023-11-22T14:35:15;4.68;;;3.55;;
26540;SDS011;14206;50.202;10.948;2023-11-22T14:37:44;6.32;;;4.35;;
26540;SDS011;14206;50.202;10.948;2023-11-22T14:40:11;5.57;;;4.22;;
26540;SDS011;14206;50.202;10.948;2023-11-22T14:42:41;6.03;;;3.95;;
26540;SDS011;14206;50.202;10.948;2023-11-22T14:45:09;6.93;;;4.65;;
26540;SDS011;14206;50.202;10.948;2023-11-22T14:47:38;6.03;;;4.07;;
26540;SDS011;14206;50.202;10.948;2023-11-22T14:50:07;10.63;;;6.97;;
26540;SDS011;14206;50.202;10.948;2023-11-22T14:52:37;9.98;;;6.53;;
26540;SDS011;14206;50.202;10.948;2023-11-22T14:55:05;6.90;;;4.97;;